createdAt,value
2022-07-29T00:01:50.479Z,100255.84
2022-07-29T00:04:20.654Z,100257.88
2022-07-29T00:06:50.526Z,100257.16
2022-07-29T00:09:22.545Z,100253.91
2022-07-29T00:11:51.992Z,100260.91
2022-07-29T00:14:21.419Z,100259.91
2022-07-29T00:16:50.957Z,100265.66
2022-07-29T00:19:20.442Z,100269.75
2022-07-29T00:21:50.707Z,100267.44
2022-07-29T00:24:22.716Z,100259.88
2022-07-29T00:26:52.176Z,100260.16
2022-07-29T00:29:36.849Z,100253.94
2022-07-29T00:32:06.421Z,100257.25
2022-07-29T00:34:48.376Z,100250.09
2022-07-29T00:37:17.825Z,100246.31
2022-07-29T00:39:49.846Z,100239.22
2022-07-29T00:42:19.309Z,100239.22
2022-07-29T00:44:48.769Z,100233.44
2022-07-29T00:47:18.227Z,100227.50
2022-07-29T00:49:47.665Z,100219.94
2022-07-29T00:52:17.358Z,100206.28
2022-07-29T00:54:49.410Z,100212.88
2022-07-29T00:57:18.848Z,100225.38
2022-07-29T00:59:48.302Z,100225.69
2022-07-29T01:02:17.821Z,100224.09
2022-07-29T01:04:47.301Z,100217.59
2022-07-29T01:07:16.743Z,100214.59
2022-07-29T01:09:49.094Z,100212.94
2022-07-29T01:12:21.118Z,100199.97
2022-07-29T01:14:50.756Z,100199.97
2022-07-29T01:17:23.434Z,100204.91
2022-07-29T01:19:56.505Z,100195.75
2022-07-29T01:22:31.788Z,100192.59
2022-07-29T01:25:16.667Z,100180.78
2022-07-29T01:27:52.530Z,100176.00
2022-07-29T01:30:24.873Z,100177.13
2022-07-29T01:32:56.878Z,100177.16
2022-07-29T01:35:27.539Z,100178.56
2022-07-29T01:38:01.251Z,100173.44
2022-07-29T01:40:34.709Z,100168.06
2022-07-29T01:43:06.479Z,100161.53
2022-07-29T01:45:41.345Z,100167.75
2022-07-29T01:48:15.674Z,100175.28
2022-07-29T01:50:49.345Z,100169.34
2022-07-29T01:53:20.438Z,100165.31
2022-07-29T01:55:49.877Z,100175.53
2022-07-29T01:58:19.934Z,100172.31
2022-07-29T02:00:52.402Z,100165.56
2022-07-29T02:03:21.909Z,100175.28
2022-07-29T02:05:51.350Z,100167.00
2022-07-29T02:08:20.916Z,100166.50
2022-07-29T02:10:50.754Z,100162.22
2022-07-29T02:13:20.553Z,100162.50
2022-07-29T02:15:52.651Z,100168.16
2022-07-29T02:18:22.839Z,100165.50
2022-07-29T02:20:52.973Z,100173.44
2022-07-29T02:23:23.978Z,100173.44
2022-07-29T02:25:54.790Z,100184.50
2022-07-29T02:28:24.297Z,100172.41
2022-07-29T02:30:56.907Z,100167.00
2022-07-29T02:33:26.469Z,100175.06
2022-07-29T02:35:55.911Z,100166.75
2022-07-29T02:38:37.877Z,100167.31
2022-07-29T02:41:09.640Z,100166.22
2022-07-29T02:43:39.109Z,100160.84
2022-07-29T02:46:12.705Z,100160.28
2022-07-29T02:49:01.320Z,100167.56
2022-07-29T02:51:43.433Z,100168.38
2022-07-29T02:54:15.116Z,100163.00
2022-07-29T02:56:45.870Z,100161.38
2022-07-29T02:59:15.508Z,100158.16
2022-07-29T03:01:47.609Z,100154.13
2022-07-29T03:04:17.592Z,100155.50
2022-07-29T03:06:47.353Z,100154.44
2022-07-29T03:09:17.022Z,100161.44
2022-07-29T03:11:50.680Z,100157.97
2022-07-29T03:14:21.721Z,100166.06
2022-07-29T03:16:54.128Z,100155.84
2022-07-29T03:19:23.839Z,100154.78
2022-07-29T03:21:53.290Z,100154.53
2022-07-29T03:24:32.698Z,100164.50
2022-07-29T03:27:02.405Z,100168.25
2022-07-29T03:29:33.450Z,100156.69
2022-07-29T03:32:07.131Z,100156.94
2022-07-29T03:34:37.547Z,100166.09
2022-07-29T03:37:07.180Z,100167.19
2022-07-29T03:39:39.040Z,100172.59
2022-07-29T03:42:08.857Z,100169.06
2022-07-29T03:44:38.365Z,100174.44
2022-07-29T03:47:10.454Z,100170.97
2022-07-29T03:49:40.269Z,100177.69
2022-07-29T03:52:09.817Z,100180.09
2022-07-29T03:54:39.286Z,100172.28
2022-07-29T03:57:08.756Z,100175.00
2022-07-29T03:59:38.974Z,100183.88
2022-07-29T04:02:14.559Z,100176.06
2022-07-29T04:04:44.333Z,100190.03
2022-07-29T04:07:15.498Z,100183.59
2022-07-29T04:09:45.022Z,100187.09
2022-07-29T04:12:14.555Z,100187.09
2022-07-29T04:14:44.038Z,100197.84
2022-07-29T04:17:16.068Z,100194.63
2022-07-29T04:19:45.538Z,100193.81
2022-07-29T04:22:15.091Z,100194.34
2022-07-29T04:24:44.716Z,100187.34
2022-07-29T04:27:14.176Z,100182.78
2022-07-29T04:29:56.902Z,100195.41
2022-07-29T04:32:29.861Z,100197.06
2022-07-29T04:34:59.318Z,100197.56
2022-07-29T04:37:28.824Z,100201.59
2022-07-29T04:39:58.284Z,100201.63
2022-07-29T04:42:29.402Z,100199.19
2022-07-29T04:44:59.215Z,100201.34
2022-07-29T04:47:33.402Z,100200.28
2022-07-29T04:50:03.131Z,100195.41
2022-07-29T04:52:32.544Z,100197.31
2022-07-29T04:55:02.036Z,100191.38
2022-07-29T04:57:31.479Z,100189.19
2022-07-29T05:00:00.965Z,100192.09
2022-07-29T05:02:33.037Z,100192.63
2022-07-29T05:05:02.526Z,100192.06
2022-07-29T05:07:31.956Z,100192.06
2022-07-29T05:10:01.406Z,100191.19
2022-07-29T05:12:30.877Z,100195.72
2022-07-29T05:15:00.491Z,100194.28
2022-07-29T05:17:30.004Z,100197.75
2022-07-29T05:20:02.050Z,100210.06
2022-07-29T05:22:31.492Z,100203.03
2022-07-29T05:25:05.533Z,100202.97
2022-07-29T05:27:38.601Z,100203.22
2022-07-29T05:30:09.436Z,100202.59
2022-07-29T05:32:38.916Z,100193.13
2022-07-29T05:35:12.601Z,100196.56
2022-07-29T05:37:42.076Z,100194.22
2022-07-29T05:40:12.079Z,100194.31
2022-07-29T05:42:41.533Z,100199.56
2022-07-29T05:45:11.915Z,100198.38
2022-07-29T05:47:41.462Z,100195.78
2022-07-29T05:50:13.737Z,100204.94
2022-07-29T05:52:43.221Z,100206.19
2022-07-29T05:55:13.247Z,100198.72
2022-07-29T05:57:44.448Z,100206.38
2022-07-29T06:00:14.982Z,100205.38
2022-07-29T06:02:44.443Z,100204.16
2022-07-29T06:05:17.255Z,100209.81
2022-07-29T06:07:50.195Z,100214.69
2022-07-29T06:10:20.521Z,100218.09
2022-07-29T06:12:53.441Z,100221.47
2022-07-29T06:15:22.881Z,100226.81
2022-07-29T06:17:59.346Z,100226.84
2022-07-29T06:20:33.275Z,100226.00
2022-07-29T06:23:05.467Z,100229.31
2022-07-29T06:25:37.643Z,100230.06
2022-07-29T06:28:07.601Z,100225.00
2022-07-29T06:30:37.095Z,100230.34
2022-07-29T06:33:06.683Z,100224.19
2022-07-29T06:35:41.863Z,100229.94
2022-07-29T06:38:30.369Z,100223.53
2022-07-29T06:41:04.828Z,100233.81
2022-07-29T06:43:51.706Z,100231.25
2022-07-29T06:46:24.242Z,100228.69
2022-07-29T06:48:54.107Z,100226.13
2022-07-29T06:51:26.208Z,100230.59
2022-07-29T06:54:00.238Z,100232.09
2022-07-29T06:56:39.109Z,100239.03
2022-07-29T06:59:09.236Z,100233.50
2022-07-29T07:01:39.331Z,100235.44
2022-07-29T07:04:09.750Z,100236.75
2022-07-29T07:06:41.966Z,100241.72
2022-07-29T07:09:11.434Z,100243.75
2022-07-29T07:11:40.924Z,100246.41
2022-07-29T07:14:10.369Z,100249.13
2022-07-29T07:16:39.842Z,100247.03
2022-07-29T07:19:09.400Z,100247.72
2022-07-29T07:21:38.830Z,100243.81
2022-07-29T07:24:11.342Z,100248.97
2022-07-29T07:26:41.074Z,100251.31
2022-07-29T07:29:10.557Z,100254.94
2022-07-29T07:31:40.213Z,100258.91
2022-07-29T07:34:09.687Z,100253.28
2022-07-29T07:36:39.130Z,100253.72
2022-07-29T07:39:11.182Z,100262.50
2022-07-29T07:41:40.625Z,100252.19
2022-07-29T07:44:15.653Z,100259.44
2022-07-29T07:46:45.941Z,100248.84
2022-07-29T07:49:15.474Z,100251.78
2022-07-29T07:51:44.942Z,100247.56
2022-07-29T07:54:23.142Z,100254.16
2022-07-29T07:56:53.387Z,100256.59
2022-07-29T07:59:23.070Z,100254.91
2022-07-29T08:01:55.764Z,100256.94
2022-07-29T08:04:28.503Z,100261.41
2022-07-29T08:06:58.751Z,100262.06
2022-07-29T08:09:31.293Z,100258.53
2022-07-29T08:12:03.344Z,100250.75
2022-07-29T08:14:32.970Z,100265.38
2022-07-29T08:17:02.493Z,100251.69
2022-07-29T08:19:32.043Z,100262.53
2022-07-29T08:22:01.482Z,100253.94
2022-07-29T08:24:53.489Z,100263.94
2022-07-29T08:30:14.992Z,100261.81
2022-07-29T08:32:53.592Z,100267.28
2022-07-29T08:35:23.929Z,100265.78
2022-07-29T08:37:53.522Z,100262.34
2022-07-29T08:40:30.595Z,100263.34
2022-07-29T08:43:02.072Z,100266.09
2022-07-29T08:45:32.764Z,100254.91
2022-07-29T08:48:02.238Z,100258.28
2022-07-29T08:50:31.677Z,100257.44
2022-07-29T08:53:01.128Z,100257.09
2022-07-29T08:55:33.141Z,100259.19
2022-07-29T08:58:02.577Z,100250.22
2022-07-29T09:00:32.038Z,100256.13
2022-07-29T09:03:01.950Z,100249.22
2022-07-29T09:05:31.404Z,100249.50
2022-07-29T09:08:00.855Z,100242.19
2022-07-29T09:10:32.902Z,100251.72
2022-07-29T09:13:02.336Z,100251.75
2022-07-29T09:15:31.987Z,100248.81
2022-07-29T09:18:02.352Z,100250.09
2022-07-29T09:20:52.778Z,100247.97
2022-07-29T09:23:24.856Z,100252.13
2022-07-29T09:25:57.326Z,100244.28
2022-07-29T09:28:27.377Z,100247.38
2022-07-29T09:30:59.253Z,100246.16
2022-07-29T09:33:35.499Z,100247.66
2022-07-29T09:36:06.634Z,100243.03
2022-07-29T09:38:36.274Z,100249.88
2022-07-29T09:41:11.148Z,100244.41
2022-07-29T09:43:41.576Z,100241.13
2022-07-29T09:46:15.078Z,100245.47
2022-07-29T09:48:44.582Z,100240.78
2022-07-29T09:51:37.767Z,100242.66
2022-07-29T09:54:24.956Z,100254.38
2022-07-29T09:56:57.477Z,100254.88
2022-07-29T09:59:27.649Z,100257.16
2022-07-29T10:01:57.530Z,100241.81
2022-07-29T10:04:27.285Z,100246.50
2022-07-29T10:07:04.868Z,100247.81
2022-07-29T10:09:34.649Z,100252.53
2022-07-29T10:12:11.985Z,100246.88
2022-07-29T10:14:41.526Z,100245.34
2022-07-29T10:17:11.460Z,100245.06
2022-07-29T10:19:42.972Z,100247.56
2022-07-29T10:22:15.054Z,100239.44
2022-07-29T10:24:44.579Z,100238.25
2022-07-29T10:27:16.720Z,100246.28
2022-07-29T10:29:46.170Z,100249.13
2022-07-29T10:32:29.143Z,100249.66
2022-07-29T10:35:19.426Z,100242.91
2022-07-29T10:38:04.760Z,100240.59
2022-07-29T10:40:55.242Z,100230.59
2022-07-29T10:43:31.887Z,100222.41
2022-07-29T10:46:03.025Z,100222.00
2022-07-29T10:48:36.937Z,100215.28
2022-07-29T10:51:09.628Z,100214.56
2022-07-29T10:53:51.489Z,100203.31
2022-07-29T10:56:27.957Z,100199.50
2022-07-29T10:59:36.526Z,100198.34
2022-07-29T11:05:05.072Z,100194.38
2022-07-29T11:07:45.614Z,100193.06
2022-07-29T11:10:26.934Z,100188.59
2022-07-29T11:13:01.164Z,100187.59
2022-07-29T11:15:33.896Z,100185.69
2022-07-29T11:18:15.037Z,100189.97
2022-07-29T11:20:49.894Z,100189.38
2022-07-29T11:23:28.039Z,100197.66
2022-07-29T11:29:20.260Z,100189.56
2022-07-29T11:31:55.914Z,100182.75
2022-07-29T11:34:29.682Z,100179.50
2022-07-29T11:37:28.273Z,100183.94
2022-07-29T11:40:20.291Z,100183.53
2022-07-29T11:42:52.107Z,100177.41
2022-07-29T11:45:42.733Z,100186.41
2022-07-29T11:48:29.753Z,100186.31
2022-07-29T11:51:01.634Z,100174.38
2022-07-29T11:53:33.404Z,100174.81
2022-07-29T11:56:03.869Z,100173.66
2022-07-29T11:58:33.783Z,100178.91
2022-07-29T12:01:04.831Z,100182.16
2022-07-29T12:03:37.550Z,100180.09
2022-07-29T12:06:18.116Z,100162.78
2022-07-29T12:08:48.107Z,100162.19
2022-07-29T12:11:22.778Z,100164.16
2022-07-29T12:13:52.869Z,100166.69
2022-07-29T12:16:25.990Z,100160.53
2022-07-29T12:19:02.007Z,100156.25
2022-07-29T12:21:32.259Z,100156.66
2022-07-29T12:24:08.998Z,100148.44
2022-07-29T12:26:40.569Z,100151.75
2022-07-29T12:29:14.772Z,100146.09
2022-07-29T12:31:45.303Z,100147.06
2022-07-29T12:34:18.804Z,100149.44
2022-07-29T12:36:48.242Z,100142.13
2022-07-29T12:39:18.911Z,100138.63
2022-07-29T12:41:48.641Z,100137.72
2022-07-29T12:44:18.106Z,100133.72
2022-07-29T12:46:49.348Z,100134.84
2022-07-29T12:49:27.582Z,100136.06
2022-07-29T12:51:57.303Z,100130.78
2022-07-29T12:54:26.950Z,100127.97
2022-07-29T12:57:02.357Z,100124.91
2022-07-29T12:59:31.797Z,100132.66
2022-07-29T13:02:01.481Z,100123.22
2022-07-29T13:04:36.592Z,100122.50
2022-07-29T13:07:08.348Z,100118.44
2022-07-29T13:09:40.735Z,100113.75
2022-07-29T13:12:11.171Z,100107.69
2022-07-29T13:14:41.609Z,100109.91
2022-07-29T13:17:11.765Z,100116.38
2022-07-29T13:19:44.539Z,100121.75
2022-07-29T13:22:14.444Z,100117.28
2022-07-29T13:24:51.000Z,100115.69
2022-07-29T13:27:20.648Z,100117.06
2022-07-29T13:29:52.315Z,100119.22
2022-07-29T13:32:27.759Z,100106.47
2022-07-29T13:35:01.663Z,100112.13
2022-07-29T13:37:35.332Z,100117.00
2022-07-29T13:40:05.144Z,100105.56
2022-07-29T13:42:35.053Z,100106.47
2022-07-29T13:45:04.656Z,100117.28
2022-07-29T13:47:34.177Z,100113.66
2022-07-29T13:50:08.096Z,100118.06
2022-07-29T13:52:38.481Z,100120.38
2022-07-29T13:55:09.470Z,100116.72
2022-07-29T13:57:39.152Z,100110.72
2022-07-29T14:00:10.101Z,100116.59
2022-07-29T14:02:39.817Z,100114.44
2022-07-29T14:05:13.190Z,100094.28
2022-07-29T14:07:42.722Z,100101.44
2022-07-29T14:10:15.192Z,100104.34
2022-07-29T14:12:47.877Z,100106.50
2022-07-29T14:15:17.341Z,100108.59
2022-07-29T14:17:46.780Z,100107.44
2022-07-29T14:20:19.217Z,100114.00
2022-07-29T14:22:49.357Z,100106.25
2022-07-29T14:25:19.730Z,100112.38
2022-07-29T14:27:51.449Z,100117.22
2022-07-29T14:30:20.925Z,100122.81
2022-07-29T14:32:50.634Z,100129.78
2022-07-29T14:35:22.656Z,100139.13
2022-07-29T14:37:52.116Z,100119.09
2022-07-29T14:40:21.562Z,100119.69
2022-07-29T14:42:51.023Z,100119.75
2022-07-29T14:45:20.529Z,100117.66
2022-07-29T14:47:51.070Z,100122.66
2022-07-29T14:50:31.971Z,100122.53
2022-07-29T14:53:01.908Z,100124.16
2022-07-29T14:55:31.646Z,100107.91
2022-07-29T14:58:08.937Z,100110.34
2022-07-29T15:00:41.885Z,100116.22
2022-07-29T15:03:11.943Z,100113.09
2022-07-29T15:05:44.015Z,100114.69
2022-07-29T15:08:13.464Z,100112.00
2022-07-29T15:10:42.928Z,100121.34
2022-07-29T15:13:12.352Z,100126.28
2022-07-29T15:15:42.314Z,100131.25
2022-07-29T15:18:11.729Z,100130.63
2022-07-29T15:20:46.002Z,100131.06
2022-07-29T15:23:15.474Z,100129.81
2022-07-29T15:25:44.928Z,100137.47
2022-07-29T15:28:14.401Z,100137.25
2022-07-29T15:30:44.544Z,100126.31
2022-07-29T15:33:14.059Z,100132.22
2022-07-29T15:35:46.121Z,100134.38
2022-07-29T15:38:15.560Z,100135.31
2022-07-29T15:40:46.608Z,100139.19
2022-07-29T15:43:16.086Z,100143.38
2022-07-29T15:46:06.989Z,100139.13
2022-07-29T15:48:36.507Z,100140.88
2022-07-29T15:51:09.416Z,100136.69
2022-07-29T15:53:38.857Z,100128.97
2022-07-29T15:56:08.551Z,100129.09
2022-07-29T15:58:38.010Z,100127.44
2022-07-29T16:01:08.451Z,100131.09
2022-07-29T16:03:39.337Z,100136.53
2022-07-29T16:06:13.021Z,100139.91
2022-07-29T16:08:42.540Z,100145.63
2022-07-29T16:11:12.029Z,100157.03
2022-07-29T16:13:41.545Z,100169.56
2022-07-29T16:16:11.058Z,100184.34
2022-07-29T16:18:40.533Z,100195.66
2022-07-29T16:21:09.976Z,100189.56
2022-07-29T16:23:42.046Z,100183.97
2022-07-29T16:26:11.584Z,100188.44
2022-07-29T16:28:41.047Z,100172.97
2022-07-29T16:31:10.637Z,100163.81
2022-07-29T16:33:54.220Z,100185.66
2022-07-29T16:36:25.544Z,100192.28
2022-07-29T16:38:57.583Z,100199.66
2022-07-29T16:41:27.042Z,100205.84
2022-07-29T16:43:56.489Z,100195.41
2022-07-29T16:46:26.052Z,100200.81
2022-07-29T16:48:55.831Z,100195.09
2022-07-29T16:51:26.129Z,100192.72
2022-07-29T16:53:58.172Z,100188.19
2022-07-29T16:56:27.641Z,100188.88
2022-07-29T16:58:57.272Z,100187.44
2022-07-29T17:01:26.729Z,100180.97
2022-07-29T17:04:12.032Z,100190.78
2022-07-29T17:06:42.378Z,100185.38
2022-07-29T17:09:15.437Z,100185.28
2022-07-29T17:11:53.508Z,100191.84
2022-07-29T17:14:24.963Z,100196.47
2022-07-29T17:17:00.599Z,100202.88
2022-07-29T17:19:31.431Z,100206.72
2022-07-29T17:22:11.340Z,100200.78
2022-07-29T17:24:45.443Z,100207.25
2022-07-29T17:27:15.228Z,100200.34
2022-07-29T17:29:44.698Z,100207.13
2022-07-29T17:32:14.154Z,100221.19
2022-07-29T17:34:44.289Z,100221.00
2022-07-29T17:37:14.177Z,100224.63
2022-07-29T17:39:46.342Z,100225.13
2022-07-29T17:42:16.431Z,100227.22
2022-07-29T17:44:46.233Z,100224.44
2022-07-29T17:47:16.682Z,100234.00
2022-07-29T17:49:46.460Z,100222.56
2022-07-29T17:52:18.485Z,100230.13
2022-07-29T17:54:50.513Z,100228.91
2022-07-29T17:57:19.970Z,100231.56
2022-07-29T17:59:49.403Z,100229.66
2022-07-29T18:02:18.926Z,100229.53
2022-07-29T18:04:50.598Z,100240.38
2022-07-29T18:07:20.226Z,100242.16
2022-07-29T18:09:52.253Z,100251.59
2022-07-29T18:12:21.676Z,100253.97
2022-07-29T18:14:51.121Z,100264.16
2022-07-29T18:17:20.562Z,100263.13
2022-07-29T18:19:50.026Z,100268.25
2022-07-29T18:22:19.474Z,100268.38
2022-07-29T18:24:48.938Z,100265.81
2022-07-29T18:27:20.950Z,100264.56
2022-07-29T18:29:51.165Z,100258.66
2022-07-29T18:32:29.141Z,100267.63
2022-07-29T18:35:02.544Z,100272.75
2022-07-29T18:38:01.449Z,100276.06
2022-07-29T18:40:21.520Z,100277.38
2022-07-29T18:42:53.543Z,100265.53
2022-07-29T18:45:23.158Z,100268.94
2022-07-29T18:47:58.239Z,100265.88
2022-07-29T18:50:29.573Z,100277.16
2022-07-29T18:53:01.209Z,100278.84
2022-07-29T18:55:30.675Z,100283.72
2022-07-29T18:58:03.220Z,100287.31
2022-07-29T19:00:32.922Z,100293.78
2022-07-29T19:03:03.281Z,100298.81
2022-07-29T19:05:33.151Z,100305.31
2022-07-29T19:08:02.591Z,100314.25
2022-07-29T19:10:32.071Z,100318.91
2022-07-29T19:13:04.116Z,100323.44
2022-07-29T19:15:33.566Z,100331.28
2022-07-29T19:18:03.002Z,100334.22
2022-07-29T19:20:32.458Z,100343.63
2022-07-29T19:23:02.234Z,100352.63
2022-07-29T19:25:31.685Z,100354.97
2022-07-29T19:28:07.998Z,100357.88
2022-07-29T19:30:37.461Z,100356.28
2022-07-29T19:33:07.349Z,100361.97
2022-07-29T19:35:36.842Z,100369.53
2022-07-29T19:38:06.277Z,100368.47
2022-07-29T19:40:35.731Z,100385.53
2022-07-29T19:43:51.397Z,100388.91
2022-07-29T19:45:57.418Z,100393.22
2022-07-29T19:48:26.876Z,100390.75
2022-07-29T19:50:56.308Z,100393.00
2022-07-29T19:53:25.794Z,100401.38
2022-07-29T19:55:55.261Z,100404.69
2022-07-29T19:58:27.307Z,100401.22
2022-07-29T20:00:57.691Z,100403.69
2022-07-29T20:03:27.118Z,100398.13
2022-07-29T20:05:56.573Z,100399.78
2022-07-29T20:08:26.093Z,100403.28
2022-07-29T20:10:56.029Z,100401.16
2022-07-29T20:13:28.071Z,100397.88
2022-07-29T20:15:57.550Z,100399.22
2022-07-29T20:18:27.366Z,100400.91
2022-07-29T20:20:57.629Z,100401.75
2022-07-29T20:23:27.150Z,100400.59
2022-07-29T20:25:56.638Z,100400.59
2022-07-29T20:28:28.689Z,100396.50
2022-07-29T20:30:58.280Z,100402.44
2022-07-29T20:33:27.724Z,100405.13
2022-07-29T20:35:57.322Z,100409.44
2022-07-29T20:38:26.736Z,100410.75
2022-07-29T20:40:58.702Z,100414.75
2022-07-29T20:43:30.742Z,100411.25
2022-07-29T20:46:05.646Z,100410.66
2022-07-29T20:48:35.142Z,100414.13
2022-07-29T20:51:04.574Z,100413.59
2022-07-29T20:53:34.109Z,100418.47
2022-07-29T20:56:03.561Z,100414.75
2022-07-29T20:58:36.519Z,100414.19
2022-07-29T21:01:06.476Z,100410.66
2022-07-29T21:03:36.003Z,100423.13
2022-07-29T21:06:05.496Z,100426.66
2022-07-29T21:08:34.976Z,100431.66
2022-07-29T21:11:04.438Z,100424.88
2022-07-29T21:13:38.430Z,100436.38
2022-07-29T21:16:14.874Z,100426.91
2022-07-29T21:18:46.464Z,100431.75
2022-07-29T21:21:16.290Z,100425.97
2022-07-29T21:23:45.989Z,100435.28
2022-07-29T21:26:16.000Z,100431.53
2022-07-29T21:28:45.420Z,100430.66
2022-07-29T21:31:19.536Z,100431.94
2022-07-29T21:33:49.344Z,100433.31
2022-07-29T21:36:47.205Z,100439.47
2022-07-29T21:39:09.515Z,100439.91
2022-07-29T21:41:38.977Z,100446.91
2022-07-29T21:44:11.137Z,100441.91
2022-07-29T21:46:41.034Z,100446.25
2022-07-29T21:49:10.736Z,100443.50
2022-07-29T21:51:40.241Z,100446.38
2022-07-29T21:54:09.661Z,100447.69
2022-07-29T21:56:39.702Z,100451.47
2022-07-29T21:59:12.950Z,100452.28
2022-07-29T22:01:42.495Z,100456.25
2022-07-29T22:04:12.303Z,100458.72
2022-07-29T22:06:41.758Z,100463.31
2022-07-29T22:09:11.169Z,100458.97
2022-07-29T22:11:40.678Z,100468.13
2022-07-29T22:14:12.930Z,100460.28
2022-07-29T22:16:42.691Z,100456.78
2022-07-29T22:19:12.137Z,100448.16
2022-07-29T22:21:41.571Z,100458.97
2022-07-29T22:24:12.515Z,100453.03
2022-07-29T22:26:41.734Z,100460.06
2022-07-29T22:29:17.621Z,100465.47
2022-07-29T22:31:47.131Z,100463.03
2022-07-29T22:34:16.930Z,100466.84
2022-07-29T22:36:46.370Z,100469.31
2022-07-29T22:39:16.197Z,100466.88
2022-07-29T22:41:45.763Z,100470.72
2022-07-29T22:44:17.819Z,100469.94
2022-07-29T22:46:47.268Z,100472.63
2022-07-29T22:49:16.771Z,100471.09
2022-07-29T22:51:46.473Z,100483.31
2022-07-29T22:54:15.908Z,100476.31
2022-07-29T22:56:45.362Z,100477.16
2022-07-29T22:59:17.446Z,100476.88
2022-07-29T23:01:46.944Z,100479.91
2022-07-29T23:04:16.534Z,100479.91
2022-07-29T23:06:46.054Z,100478.03
2022-07-29T23:09:15.478Z,100480.47
2022-07-29T23:11:44.923Z,100489.38
2022-07-29T23:14:16.943Z,100481.81
2022-07-29T23:16:46.598Z,100492.56
2022-07-29T23:19:16.102Z,100497.13
2022-07-29T23:21:45.553Z,100494.97
2022-07-29T23:24:15.034Z,100490.66
2022-07-29T23:26:44.449Z,100489.06
2022-07-29T23:29:13.899Z,100483.41
2022-07-29T23:31:48.557Z,100494.81
2022-07-29T23:34:17.994Z,100491.03
2022-07-29T23:36:47.411Z,100497.81
2022-07-29T23:39:16.861Z,100495.94
2022-07-29T23:41:46.289Z,100493.28
2022-07-29T23:44:15.740Z,100501.66
2022-07-29T23:46:48.672Z,100496.03
2022-07-29T23:49:18.194Z,100499.00
2022-07-29T23:51:47.665Z,100493.88
2022-07-29T23:54:17.089Z,100493.63
2022-07-29T23:56:46.595Z,100486.34
2022-07-29T23:59:16.095Z,100486.34
